world map with MSU marked

MSU - Airport

This information may not be accurate or current and is not valid for navigation or flight planning. No warranty of fitness for any purpose is made or implied.

flag of Lesotho

Donate via PayPal

Additional information is available on the NEW Great Circle Mapper

Location
City:  Maseru, Lesotho
Name:Moshoeshoe International Airport
ICAO / IATA:FXMM / MSU

Details
Type:Airport (Aerodrome, Airfield)
Use:Public/Civil
Latitude:29°27'44"S (-29.462255)
Longitude:27°33'09"E (27.552503)
Datum:WGS 1984
Elevation:5348 ft (1630 m)
Runways:2
Longest:10498 × 148 ft (3200 × 45 m)

Time
Timezone:UTC+2 (DST+4)
Local Time:

Weather
METAR:FXMM  121300Z 27010KT 9999 BKN035 FEW040CB 31/M01 Q1024 NOSIG
TAF:FXMM  (expired)

Related Locations
Nearby:
Farthest:LUP: 11799 mi / 18988 km
Kalaupapa, Molokai, HI, US

Find:

   beyond  
but within

Other Information
Maps:
Sources:

  


 


Great Circle Mapper   Great Circle Mapper
Great Circle Mapper FAQ   Great Circle Mapper FAQ
  Karl's Home Page
KLSē   KLSē Home
   GC on Facebook
Airlines of the World   Airlines of the World
Donate via PayPal


Copyright © 2004-2018, Karl L. Swartz. All rights reserved.
All trademarks mentioned herein belong to their respective owners.

Please see credits for attribution and copyright information.

Karl Swartz <karl@kls2.com>
  Powered by FreeBSD
Valid HTML 4.01!
Labeled with ICRA
hCard Microformat
Geo Microformat